Fort Sam Houston, Texas
Current Conditions -  °F | °C
As of 10:51 PM on Tuesday 21 Oct 2014 (Local Time) from KSAT Reporting Station
Broken Clouds Broken Clouds  
Wind Chill: 70°   Ceiling: 23000
Heat Index: 70°   Visibility: 10mi
Dew Point: 47°   Wind: 5mph
Humidity: 44%   Direction: 40°NE
Pressure: 30.05"   Gusts: NA
Location:  29.4541°N, 98.4578°W
Report Text: KSAT 220351Z 04004KT 10SM BKN230 21/08 A3005 RMK AO2 SLP159 T02110083
Loading
Personal Weather Stations






























Interactive Weather Map
Tropical Storm Tracking
New forecast layout! Learn more

10-Day Weather Forecast

Advertisements
Track Severe Weather on mobile